Time;durP1;ratioP1;P1;durP2;ratioP2;P2;SDS_P1;SDS_P2;PMS_P1;PMS_P2;Temp;Humidity;BMP_temperature;BMP_pressure;BME280_temperature;BME280_humidity;BME280_pressure;Samples;Min_cycle;Max_cycle;Signal;HPM_P1;HPM_P2
2023/03/24 00:01:19;;;;;;;25.23;17.77;;;;;;;;;;5059356;28;20040;-66
2023/03/24 00:04:41;;;;;;;29.85;18.75;;;;;;;;;;5056177;28;20050;-66
2023/03/24 00:08:01;;;;;;;32.67;18.60;;;;;;;;;;5062987;28;20090;-65
2023/03/24 00:11:05;;;;;;;26.75;17.75;;;;;;;;;;5055060;28;20056;-74
2023/03/24 00:13:37;;;;;;;32.28;19.10;;;;;;;;;;5063797;28;20090;-66
2023/03/24 00:16:17;;;;;;;29.90;18.38;;;;;;;;;;5063616;28;20044;-64
2023/03/24 00:19:24;;;;;;;26.65;18.15;;;;;;;;;;5057448;28;20051;-64
2023/03/24 00:23:02;;;;;;;28.67;18.90;;;;;;;;;;5060150;28;20059;-66
2023/03/24 00:25:38;;;;;;;32.15;18.98;;;;;;;;;;5059706;28;20059;-65
2023/03/24 00:28:06;;;;;;;32.95;19.52;;;;;;;;;;5061590;28;20044;-65
2023/03/24 00:31:15;;;;;;;35.80;20.50;;;;;;;;;;5056087;28;20123;-62
2023/03/24 00:34:55;;;;;;;29.70;19.30;;;;;;;;;;5058458;28;20036;-65
2023/03/24 00:38:35;;;;;;;29.92;19.80;;;;;;;;;;5060089;28;20028;-63
2023/03/24 00:42:16;;;;;;;36.85;20.15;;;;;;;;;;5063600;28;20479;-65
2023/03/24 00:45:56;;;;;;;38.20;20.38;;;;;;;;;;5064617;28;20047;-68
2023/03/24 00:49:00;;;;;;;34.67;20.90;;;;;;;;;;5063612;28;20041;-63
2023/03/24 00:52:42;;;;;;;29.40;20.17;;;;;;;;;;5064645;28;20055;-65
2023/03/24 00:56:17;;;;;;;31.58;19.92;;;;;;;;;;5061213;28;20075;-64
2023/03/24 00:59:57;;;;;;;34.13;20.67;;;;;;;;;;5063986;28;20618;-63
2023/03/24 01:03:46;;;;;;;38.47;20.65;;;;;;;;;;5062154;28;20047;-63
2023/03/24 01:07:19;;;;;;;31.67;19.35;;;;;;;;;;5069614;28;20357;-64
2023/03/24 01:10:59;;;;;;;37.83;21.02;;;;;;;;;;5062492;28;20556;-64
2023/03/24 01:14:39;;;;;;;25.90;18.92;;;;;;;;;;5064861;28;20048;-65
2023/03/24 01:18:26;;;;;;;29.70;18.63;;;;;;;;;;5057837;28;20044;-63
2023/03/24 01:22:07;;;;;;;30.67;19.52;;;;;;;;;;5063830;28;20123;-65
2023/03/24 01:25:47;;;;;;;31.27;19.50;;;;;;;;;;5065213;28;20033;-66
2023/03/24 01:29:27;;;;;;;32.63;21.50;;;;;;;;;;5066303;28;21286;-63
2023/03/24 01:33:07;;;;;;;32.90;21.30;;;;;;;;;;5068032;28;20504;-64
2023/03/24 01:36:48;;;;;;;36.78;21.15;;;;;;;;;;5058344;28;20041;-63
2023/03/24 01:40:28;;;;;;;29.77;20.48;;;;;;;;;;5061335;28;20052;-63
2023/03/24 01:43:31;;;;;;;31.70;21.35;;;;;;;;;;5056200;28;20052;-65
2023/03/24 01:46:16;;;;;;;34.33;22.05;;;;;;;;;;5063320;28;20048;-63
2023/03/24 01:48:50;;;;;;;31.65;20.60;;;;;;;;;;5063858;28;20103;-66
2023/03/24 01:51:34;;;;;;;33.75;22.27;;;;;;;;;;5061839;28;20049;-63
2023/03/24 01:54:20;;;;;;;39.13;22.15;;;;;;;;;;5063011;28;20048;-65
2023/03/24 01:56:52;;;;;;;31.02;20.60;;;;;;;;;;5062244;28;20049;-65
2023/03/24 01:59:26;;;;;;;36.70;22.80;;;;;;;;;;5065197;28;20511;-65
2023/03/24 02:02:01;;;;;;;39.60;23.45;;;;;;;;;;5063353;28;20124;-65
2023/03/24 02:04:37;;;;;;;36.13;22.80;;;;;;;;;;5063239;28;20056;-65
2023/03/24 02:07:19;;;;;;;30.60;21.67;;;;;;;;;;5060853;28;20045;-63
2023/03/24 02:09:45;;;;;;;33.17;21.73;;;;;;;;;;5067465;28;20052;-65
2023/03/24 02:12:12;;;;;;;38.40;22.98;;;;;;;;;;5066775;28;20071;-62
2023/03/24 02:14:38;;;;;;;33.88;21.60;;;;;;;;;;5067993;28;20102;-64
2023/03/24 02:17:16;;;;;;;31.75;22.25;;;;;;;;;;5065863;28;20102;-63
2023/03/24 02:20:09;;;;;;;33.58;21.48;;;;;;;;;;5061994;28;20060;-63
2023/03/24 02:22:51;;;;;;;32.97;22.05;;;;;;;;;;5037364;28;20147;-63
2023/03/24 02:25:53;;;;;;;32.78;21.90;;;;;;;;;;5061706;28;20119;-63
2023/03/24 02:28:49;;;;;;;33.28;21.80;;;;;;;;;;5063345;28;20515;-63
2023/03/24 02:31:46;;;;;;;36.47;22.83;;;;;;;;;;5059827;28;20047;-62
2023/03/24 02:34:27;;;;;;;38.47;22.65;;;;;;;;;;5067969;28;20284;-63
2023/03/24 02:37:26;;;;;;;33.55;21.15;;;;;;;;;;5064934;28;20040;-62
2023/03/24 02:40:22;;;;;;;32.63;21.20;;;;;;;;;;5063398;28;20560;-63
2023/03/24 02:43:06;;;;;;;30.73;21.23;;;;;;;;;;5060256;28;20056;-62
2023/03/24 02:45:44;;;;;;;31.05;20.40;;;;;;;;;;5063212;28;20475;-65
2023/03/24 02:48:12;;;;;;;30.88;21.77;;;;;;;;;;5065178;28;20116;-63
2023/03/24 02:51:24;;;;;;;30.95;21.88;;;;;;;;;;5062692;28;20052;-63
2023/03/24 02:53:57;;;;;;;32.90;21.60;;;;;;;;;;5058348;28;20044;-65
2023/03/24 02:56:40;;;;;;;33.13;21.83;;;;;;;;;;5059293;28;20149;-65
2023/03/24 02:59:10;;;;;;;36.95;21.42;;;;;;;;;;5060796;28;20057;-65
2023/03/24 03:02:08;;;;;;;31.00;22.10;;;;;;;;;;5066007;28;20044;-61
2023/03/24 03:04:48;;;;;;;31.08;21.52;;;;;;;;;;5062158;28;20076;-65
2023/03/24 03:07:20;;;;;;;34.13;21.88;;;;;;;;;;5059775;28;20052;-62
2023/03/24 03:09:53;;;;;;;37.38;22.45;;;;;;;;;;5059942;28;20527;-63
2023/03/24 03:12:24;;;;;;;34.50;22.05;;;;;;;;;;5063599;28;20123;-63
2023/03/24 03:15:12;;;;;;;40.78;22.73;;;;;;;;;;5062499;28;20041;-62
2023/03/24 03:17:48;;;;;;;33.33;21.63;;;;;;;;;;5066685;28;20089;-63
2023/03/24 03:20:19;;;;;;;35.20;22.88;;;;;;;;;;5061608;28;20507;-64
2023/03/24 03:22:55;;;;;;;36.70;22.70;;;;;;;;;;5057582;28;20478;-63
2023/03/24 03:25:27;;;;;;;35.92;22.92;;;;;;;;;;5054981;28;20727;-64
2023/03/24 03:27:58;;;;;;;36.42;22.63;;;;;;;;;;5063854;28;20430;-63
2023/03/24 03:30:38;;;;;;;35.08;23.15;;;;;;;;;;5059380;28;20075;-63
2023/03/24 03:33:10;;;;;;;35.13;22.83;;;;;;;;;;5064004;28;20067;-63
2023/03/24 03:36:06;;;;;;;36.67;23.27;;;;;;;;;;5058177;28;20072;-62
2023/03/24 03:38:59;;;;;;;33.10;22.77;;;;;;;;;;5062789;28;20508;-63
2023/03/24 03:41:25;;;;;;;39.30;21.55;;;;;;;;;;5062227;28;20493;-63
2023/03/24 03:43:52;;;;;;;29.50;21.13;;;;;;;;;;5063179;28;20051;-63
2023/03/24 03:46:18;;;;;;;35.22;22.77;;;;;;;;;;5061796;28;20408;-63
2023/03/24 03:48:45;;;;;;;31.50;22.67;;;;;;;;;;5065403;28;20052;-63
2023/03/24 03:51:13;;;;;;;32.10;22.60;;;;;;;;;;5055613;28;20467;-62
2023/03/24 03:53:43;;;;;;;32.30;23.60;;;;;;;;;;5064606;28;20583;-63
2023/03/24 03:56:09;;;;;;;37.83;23.83;;;;;;;;;;5061124;28;20264;-66
2023/03/24 03:58:36;;;;;;;40.53;24.25;;;;;;;;;;5060073;28;20140;-63
2023/03/24 04:01:03;;;;;;;29.73;23.02;;;;;;;;;;5060314;28;20075;-63
2023/03/24 04:03:48;;;;;;;37.15;22.90;;;;;;;;;;5061311;28;20132;-63
2023/03/24 04:06:44;;;;;;;42.88;25.17;;;;;;;;;;5060493;28;20048;-63
2023/03/24 04:09:23;;;;;;;36.40;23.33;;;;;;;;;;5053596;28;20049;-62
2023/03/24 04:11:49;;;;;;;36.38;24.10;;;;;;;;;;5066742;28;20037;-63
2023/03/24 04:14:42;;;;;;;38.67;25.67;;;;;;;;;;5066841;28;20779;-62
2023/03/24 04:17:51;;;;;;;39.03;25.02;;;;;;;;;;5062089;28;20072;-63
2023/03/24 04:20:33;;;;;;;38.30;25.45;;;;;;;;;;5062752;28;20064;-62
2023/03/24 04:23:08;;;;;;;37.67;25.33;;;;;;;;;;5063808;28;20093;-62
2023/03/24 04:25:55;;;;;;;37.30;25.52;;;;;;;;;;5059702;28;20431;-64
2023/03/24 04:28:56;;;;;;;43.33;26.88;;;;;;;;;;5070508;28;20622;-65
2023/03/24 04:31:32;;;;;;;42.78;26.30;;;;;;;;;;5065281;28;20048;-62
2023/03/24 04:34:24;;;;;;;36.28;24.92;;;;;;;;;;5062663;28;20082;-64
2023/03/24 04:36:55;;;;;;;39.63;25.60;;;;;;;;;;5062269;28;20106;-63
2023/03/24 04:39:27;;;;;;;39.22;25.75;;;;;;;;;;5066181;28;20067;-64
2023/03/24 04:41:56;;;;;;;35.75;25.73;;;;;;;;;;5064256;28;20048;-64
2023/03/24 04:44:24;;;;;;;36.75;25.50;;;;;;;;;;5064604;28;20048;-63
2023/03/24 04:46:53;;;;;;;34.97;23.63;;;;;;;;;;5066095;28;20060;-63
2023/03/24 04:49:19;;;;;;;34.72;24.80;;;;;;;;;;5063593;28;20044;-63
2023/03/24 04:51:46;;;;;;;36.28;24.73;;;;;;;;;;5067185;28;20091;-62
2023/03/24 04:54:12;;;;;;;42.42;25.98;;;;;;;;;;5065175;28;20515;-64
2023/03/24 04:56:50;;;;;;;47.20;26.40;;;;;;;;;;5068491;28;20058;-63
2023/03/24 04:59:17;;;;;;;42.90;25.63;;;;;;;;;;5059043;28;20117;-68
2023/03/24 05:01:51;;;;;;;38.10;24.45;;;;;;;;;;5065938;28;20091;-62
2023/03/24 05:04:22;;;;;;;35.45;23.38;;;;;;;;;;5046935;28;20097;-64
2023/03/24 05:06:49;;;;;;;34.90;22.35;;;;;;;;;;5063225;28;20048;-65
2023/03/24 05:09:20;;;;;;;30.15;22.08;;;;;;;;;;5056621;28;20052;-62
2023/03/24 05:11:46;;;;;;;33.05;21.67;;;;;;;;;;5061897;28;20212;-63
2023/03/24 05:14:13;;;;;;;29.80;19.73;;;;;;;;;;5068047;28;20053;-62
2023/03/24 05:16:40;;;;;;;26.60;18.92;;;;;;;;;;5060179;28;20056;-61
2023/03/24 05:19:07;;;;;;;30.10;19.25;;;;;;;;;;5062167;28;20540;-63
2023/03/24 05:21:34;;;;;;;26.90;17.88;;;;;;;;;;5047252;28;20397;-62
2023/03/24 05:23:59;;;;;;;28.50;17.85;;;;;;;;;;5067550;28;20547;-65
2023/03/24 05:26:26;;;;;;;25.83;15.80;;;;;;;;;;5063960;28;20061;-64
2023/03/24 05:28:52;;;;;;;27.92;15.60;;;;;;;;;;5060775;28;20044;-62
2023/03/24 05:31:19;;;;;;;16.70;12.23;;;;;;;;;;5067482;28;20056;-63
2023/03/24 05:33:45;;;;;;;16.50;10.63;;;;;;;;;;5062401;28;20059;-63
2023/03/24 05:36:11;;;;;;;16.73;9.77;;;;;;;;;;5066615;28;20110;-67
2023/03/24 05:38:38;;;;;;;19.40;9.77;;;;;;;;;;5062613;28;20258;-65
2023/03/24 05:41:05;;;;;;;15.23;9.30;;;;;;;;;;5041384;28;20504;-65
2023/03/24 05:43:31;;;;;;;17.33;8.95;;;;;;;;;;5067539;28;20139;-63
2023/03/24 05:45:59;;;;;;;16.40;8.35;;;;;;;;;;5067675;28;20645;-64
2023/03/24 05:48:25;;;;;;;17.58;9.07;;;;;;;;;;5074356;28;20095;-67
2023/03/24 05:51:31;;;;;;;14.75;7.90;;;;;;;;;;5064090;28;20041;-63
2023/03/24 05:55:14;;;;;;;12.35;7.32;;;;;;;;;;5057606;28;20135;-63
2023/03/24 05:58:54;;;;;;;10.70;7.30;;;;;;;;;;5058695;28;20047;-61
2023/03/24 06:02:36;;;;;;;11.30;8.18;;;;;;;;;;5068051;28;20044;-63
2023/03/24 06:06:17;;;;;;;10.40;6.85;;;;;;;;;;5064787;28;20045;-63
2023/03/24 06:09:57;;;;;;;13.93;6.03;;;;;;;;;;5057493;28;20048;-64
2023/03/24 06:13:37;;;;;;;13.02;6.13;;;;;;;;;;5064154;28;20055;-63
2023/03/24 06:17:20;;;;;;;8.27;4.90;;;;;;;;;;5068219;28;20319;-62
2023/03/24 06:20:59;;;;;;;10.60;4.43;;;;;;;;;;5063474;28;20072;-62
2023/03/24 06:24:39;;;;;;;6.45;3.40;;;;;;;;;;5066942;28;20078;-62
2023/03/24 06:28:25;;;;;;;7.13;2.97;;;;;;;;;;5064999;28;20054;-68
2023/03/24 06:31:26;;;;;;;9.68;2.78;;;;;;;;;;5058950;28;20045;-63
2023/03/24 06:33:55;;;;;;;7.85;2.30;;;;;;;;;;5068022;28;20348;-65
2023/03/24 06:37:02;;;;;;;10.65;2.20;;;;;;;;;;5064535;28;20062;-64
2023/03/24 06:40:43;;;;;;;3.80;1.90;;;;;;;;;;5075959;28;20507;-64
2023/03/24 06:44:24;;;;;;;5.38;2.13;;;;;;;;;;5062546;28;20035;-65
2023/03/24 06:48:04;;;;;;;5.60;2.30;;;;;;;;;;5060384;28;20036;-71
2023/03/24 06:51:46;;;;;;;11.38;2.30;;;;;;;;;;5061586;28;20052;-65
2023/03/24 06:55:27;;;;;;;6.50;1.80;;;;;;;;;;5078827;28;20044;-64
2023/03/24 06:59:07;;;;;;;6.75;2.72;;;;;;;;;;5060033;28;20045;-66
2023/03/24 07:02:48;;;;;;;6.05;1.70;;;;;;;;;;5062159;28;20080;-64
2023/03/24 07:06:31;;;;;;;7.03;2.05;;;;;;;;;;5060088;28;20099;-64
2023/03/24 07:10:12;;;;;;;6.55;1.98;;;;;;;;;;5064204;28;20079;-65
2023/03/24 07:13:54;;;;;;;15.68;2.22;;;;;;;;;;5066385;28;20051;-67
2023/03/24 07:17:34;;;;;;;6.28;1.85;;;;;;;;;;5057560;28;20484;-63
2023/03/24 07:21:15;;;;;;;8.90;2.28;;;;;;;;;;5064454;28;20064;-63
2023/03/24 07:24:57;;;;;;;6.88;2.22;;;;;;;;;;5061363;28;20044;-65
2023/03/24 07:28:36;;;;;;;4.28;2.00;;;;;;;;;;5060073;28;20489;-66
2023/03/24 07:32:18;;;;;;;9.73;1.73;;;;;;;;;;5065745;28;20503;-64
2023/03/24 07:35:58;;;;;;;6.88;1.80;;;;;;;;;;5062094;28;20052;-63
2023/03/24 07:39:39;;;;;;;6.70;1.77;;;;;;;;;;5065191;28;20047;-62
2023/03/24 07:43:19;;;;;;;7.18;1.48;;;;;;;;;;5057435;28;20131;-62
2023/03/24 07:46:59;;;;;;;4.35;1.63;;;;;;;;;;5066239;28;20047;-63
2023/03/24 07:50:09;;;;;;;6.88;1.80;;;;;;;;;;5058741;28;20346;-62
2023/03/24 07:53:46;;;;;;;7.20;1.92;;;;;;;;;;5062046;28;20044;-63
2023/03/24 07:57:26;;;;;;;8.20;2.22;;;;;;;;;;5060681;28;20119;-64
2023/03/24 08:01:09;;;;;;;8.02;1.80;;;;;;;;;;5066769;28;20048;-67
2023/03/24 08:04:47;;;;;;;5.00;1.73;;;;;;;;;;5051142;28;20049;-66
2023/03/24 08:08:27;;;;;;;5.22;2.17;;;;;;;;;;5062856;28;20041;-64
2023/03/24 08:12:08;;;;;;;8.20;1.83;;;;;;;;;;5062495;28;20047;-65
2023/03/24 08:15:50;;;;;;;7.15;1.88;;;;;;;;;;5065818;28;20102;-63
2023/03/24 08:19:29;;;;;;;6.13;2.00;;;;;;;;;;5064119;28;20094;-66
2023/03/24 08:23:10;;;;;;;4.65;1.80;;;;;;;;;;5057746;28;20127;-65
2023/03/24 08:26:51;;;;;;;9.95;2.25;;;;;;;;;;5061844;28;20056;-65
2023/03/24 08:30:34;;;;;;;4.85;2.08;;;;;;;;;;5062803;28;20115;-64
2023/03/24 08:34:14;;;;;;;5.25;1.70;;;;;;;;;;5075008;28;20070;-65
2023/03/24 08:37:54;;;;;;;11.43;2.15;;;;;;;;;;5066001;28;20071;-66
2023/03/24 08:41:35;;;;;;;5.75;1.95;;;;;;;;;;5061219;28;20457;-67
2023/03/24 08:45:15;;;;;;;3.97;1.80;;;;;;;;;;5073215;28;20046;-66
2023/03/24 08:48:56;;;;;;;8.32;2.28;;;;;;;;;;5065393;28;20128;-66
2023/03/24 08:52:36;;;;;;;5.88;1.92;;;;;;;;;;5047197;28;20044;-66
2023/03/24 08:56:16;;;;;;;7.60;1.80;;;;;;;;;;5061703;28;20082;-65
2023/03/24 08:59:56;;;;;;;4.80;1.95;;;;;;;;;;5059061;28;20127;-65
2023/03/24 09:03:38;;;;;;;7.57;1.92;;;;;;;;;;5063224;28;20041;-64
2023/03/24 09:07:17;;;;;;;6.53;1.83;;;;;;;;;;5064985;28;20045;-65
2023/03/24 09:10:57;;;;;;;3.63;1.70;;;;;;;;;;5054450;28;20055;-64
2023/03/24 09:14:26;;;;;;;4.15;1.67;;;;;;;;;;5066385;28;20346;-64
2023/03/24 09:16:52;;;;;;;5.07;1.47;;;;;;;;;;5061802;28;20044;-65
2023/03/24 09:19:18;;;;;;;11.15;1.85;;;;;;;;;;5078332;28;20287;-67
2023/03/24 09:21:45;;;;;;;4.10;1.40;;;;;;;;;;5060776;28;20064;-65
2023/03/24 09:24:12;;;;;;;6.35;1.70;;;;;;;;;;5058428;28;20041;-65
2023/03/24 09:26:38;;;;;;;7.07;1.48;;;;;;;;;;5064045;28;20671;-66
2023/03/24 09:29:04;;;;;;;4.82;1.70;;;;;;;;;;5062418;28;20044;-64
2023/03/24 09:31:31;;;;;;;5.00;1.33;;;;;;;;;;5073051;28;20495;-65
2023/03/24 09:33:57;;;;;;;6.38;1.40;;;;;;;;;;5069073;28;20052;-64
2023/03/24 09:36:23;;;;;;;6.07;1.70;;;;;;;;;;5076632;28;20072;-68
2023/03/24 09:38:48;;;;;;;8.93;1.70;;;;;;;;;;5075811;28;20143;-65
2023/03/24 09:41:23;;;;;;;10.02;1.60;;;;;;;;;;5047621;28;20280;-65
2023/03/24 09:44:13;;;;;;;3.03;1.60;;;;;;;;;;5080875;28;20526;-66
2023/03/24 09:46:45;;;;;;;5.55;1.63;;;;;;;;;;5060566;28;20040;-65
2023/03/24 09:49:16;;;;;;;6.30;1.75;;;;;;;;;;5068241;28;20119;-65
2023/03/24 09:51:44;;;;;;;5.70;2.00;;;;;;;;;;5065997;28;20044;-65
2023/03/24 09:54:22;;;;;;;5.65;1.60;;;;;;;;;;5074959;28;20084;-65
2023/03/24 09:56:49;;;;;;;9.40;1.70;;;;;;;;;;5071185;28;20055;-64
2023/03/24 09:59:25;;;;;;;11.40;2.50;;;;;;;;;;5064477;28;20051;-65
2023/03/24 10:01:51;;;;;;;12.30;1.70;;;;;;;;;;5066340;28;20261;-65
2023/03/24 10:04:25;;;;;;;11.20;1.63;;;;;;;;;;5062840;28;21799;-65
2023/03/24 10:07:16;;;;;;;17.23;1.70;;;;;;;;;;5064994;28;20052;-67
2023/03/24 10:09:46;;;;;;;11.15;1.92;;;;;;;;;;5072605;28;20130;-67
2023/03/24 10:12:17;;;;;;;8.43;1.75;;;;;;;;;;5066671;28;20044;-66
2023/03/24 10:14:55;;;;;;;7.07;1.60;;;;;;;;;;5067992;28;20129;-65
2023/03/24 10:17:27;;;;;;;6.93;1.40;;;;;;;;;;5063646;28;20054;-71
2023/03/24 10:20:01;;;;;;;6.05;1.60;;;;;;;;;;5061592;28;20408;-68
2023/03/24 10:22:49;;;;;;;9.25;1.70;;;;;;;;;;5065608;28;20461;-65
2023/03/24 10:25:20;;;;;;;19.77;2.10;;;;;;;;;;5058509;28;20053;-69
2023/03/24 10:27:55;;;;;;;19.90;2.00;;;;;;;;;;5058559;28;20052;-66
2023/03/24 10:30:27;;;;;;;18.70;1.63;;;;;;;;;;5064378;28;20045;-65
2023/03/24 10:32:54;;;;;;;12.27;1.70;;;;;;;;;;5055099;28;20045;-64
2023/03/24 10:35:51;;;;;;;5.00;1.30;;;;;;;;;;5067793;28;20304;-65
2023/03/24 10:38:20;;;;;;;3.90;1.20;;;;;;;;;;5056325;28;20064;-67
2023/03/24 10:40:49;;;;;;;11.57;1.60;;;;;;;;;;5062199;28;20458;-64
2023/03/24 10:43:17;;;;;;;7.55;1.50;;;;;;;;;;5057808;28;20090;-65
2023/03/24 10:45:49;;;;;;;5.03;1.42;;;;;;;;;;5061235;28;20041;-65
2023/03/24 10:48:34;;;;;;;6.10;1.70;;;;;;;;;;5050016;28;20426;-65
2023/03/24 10:51:01;;;;;;;7.35;1.67;;;;;;;;;;5066353;28;20048;-67
2023/03/24 10:53:30;;;;;;;5.05;1.30;;;;;;;;;;5053871;28;20059;-64
2023/03/24 10:55:58;;;;;;;8.38;1.23;;;;;;;;;;5063190;28;20602;-64
2023/03/24 10:58:27;;;;;;;3.47;1.48;;;;;;;;;;5064121;28;20193;-66
2023/03/24 11:00:54;;;;;;;6.18;1.48;;;;;;;;;;5062238;28;20055;-65
2023/03/24 11:03:27;;;;;;;6.30;1.38;;;;;;;;;;5064451;28;20729;-65
2023/03/24 11:06:01;;;;;;;5.30;1.52;;;;;;;;;;5056384;28;20135;-69
2023/03/24 11:08:39;;;;;;;5.82;1.70;;;;;;;;;;5067859;28;20468;-68
2023/03/24 11:11:28;;;;;;;6.25;1.80;;;;;;;;;;5046964;28;20404;-68
2023/03/24 11:14:03;;;;;;;8.98;1.48;;;;;;;;;;5065544;28;20209;-66
2023/03/24 11:16:34;;;;;;;8.90;1.83;;;;;;;;;;5059937;28;20255;-67
2023/03/24 11:19:03;;;;;;;7.32;1.73;;;;;;;;;;5054337;28;20125;-65
2023/03/24 11:21:31;;;;;;;10.10;1.10;;;;;;;;;;5069138;28;20044;-65
2023/03/24 11:24:00;;;;;;;6.13;1.83;;;;;;;;;;5064386;28;20041;-70
2023/03/24 11:26:32;;;;;;;10.05;1.75;;;;;;;;;;5062741;28;20388;-65
2023/03/24 11:29:06;;;;;;;8.07;1.70;;;;;;;;;;5071614;28;20051;-66
2023/03/24 11:31:37;;;;;;;11.35;1.63;;;;;;;;;;5063009;28;20064;-68
2023/03/24 11:34:19;;;;;;;12.30;1.77;;;;;;;;;;5069155;28;20036;-64
2023/03/24 11:36:53;;;;;;;5.78;1.75;;;;;;;;;;5064866;28;20474;-64
2023/03/24 11:39:25;;;;;;;8.70;1.40;;;;;;;;;;5073719;28;20229;-68
2023/03/24 11:42:14;;;;;;;5.53;1.67;;;;;;;;;;5067954;28;20393;-66
2023/03/24 11:44:50;;;;;;;4.95;1.75;;;;;;;;;;5070566;28;20040;-65
2023/03/24 11:47:30;;;;;;;3.60;1.52;;;;;;;;;;5063832;28;20484;-70
2023/03/24 11:50:05;;;;;;;7.65;1.65;;;;;;;;;;5071381;28;20132;-66
2023/03/24 11:52:38;;;;;;;7.38;1.60;;;;;;;;;;5064909;28;20052;-66
2023/03/24 11:55:38;;;;;;;7.25;1.95;;;;;;;;;;5072473;28;20102;-65
2023/03/24 11:58:19;;;;;;;7.57;1.70;;;;;;;;;;5068346;28;20508;-65
2023/03/24 12:00:57;;;;;;;5.28;1.60;;;;;;;;;;5068963;28;20058;-66
2023/03/24 12:03:46;;;;;;;9.38;1.55;;;;;;;;;;5066918;28;20044;-66
2023/03/24 12:06:47;;;;;;;4.00;1.30;;;;;;;;;;5054456;28;20123;-67
2023/03/24 12:09:44;;;;;;;10.90;1.52;;;;;;;;;;5059369;28;20048;-64
2023/03/24 12:12:29;;;;;;;7.50;1.40;;;;;;;;;;5062932;28;20061;-66
2023/03/24 12:15:16;;;;;;;9.50;1.60;;;;;;;;;;5057697;28;20049;-65
2023/03/24 12:18:07;;;;;;;4.88;1.38;;;;;;;;;;5073003;28;20028;-65
2023/03/24 12:20:38;;;;;;;7.28;1.90;;;;;;;;;;5064208;28;20045;-64
2023/03/24 12:23:14;;;;;;;6.07;1.45;;;;;;;;;;5064745;28;20126;-68
2023/03/24 12:26:02;;;;;;;4.78;1.70;;;;;;;;;;5062301;28;20135;-65
2023/03/24 12:28:53;;;;;;;12.40;1.90;;;;;;;;;;5065950;28;20059;-66
2023/03/24 12:31:40;;;;;;;8.00;1.60;;;;;;;;;;5059035;28;20492;-67
2023/03/24 12:34:38;;;;;;;5.13;1.90;;;;;;;;;;5066608;28;20485;-69
2023/03/24 12:37:32;;;;;;;8.30;1.75;;;;;;;;;;5069635;28;20040;-69
2023/03/24 12:40:10;;;;;;;6.60;1.60;;;;;;;;;;5060622;28;20040;-67
2023/03/24 12:42:45;;;;;;;3.10;1.25;;;;;;;;;;5067148;28;20056;-66
2023/03/24 12:45:30;;;;;;;9.70;1.40;;;;;;;;;;5067098;28;20056;-66
2023/03/24 12:48:06;;;;;;;6.10;1.30;;;;;;;;;;5070995;28;20051;-64
2023/03/24 12:51:10;;;;;;;10.93;1.95;;;;;;;;;;5064836;28;20102;-67
2023/03/24 12:53:42;;;;;;;4.82;1.35;;;;;;;;;;5068720;28;20076;-65
2023/03/24 12:56:15;;;;;;;5.63;1.38;;;;;;;;;;5066380;28;20051;-65
2023/03/24 12:59:09;;;;;;;8.23;1.23;;;;;;;;;;5057863;28;20040;-65
2023/03/24 13:01:42;;;;;;;6.10;1.40;;;;;;;;;;5068491;28;20128;-66
2023/03/24 13:04:22;;;;;;;11.65;1.77;;;;;;;;;;5066103;28;20535;-65
2023/03/24 13:07:02;;;;;;;12.18;1.55;;;;;;;;;;5070651;28;20127;-65
2023/03/24 13:09:38;;;;;;;9.00;1.38;;;;;;;;;;5065323;28;20051;-67
2023/03/24 13:12:19;;;;;;;8.55;1.60;;;;;;;;;;5066342;28;20458;-66
2023/03/24 13:14:48;;;;;;;7.18;1.40;;;;;;;;;;5061857;28;20052;-68
2023/03/24 13:17:37;;;;;;;4.47;1.40;;;;;;;;;;5062933;28;20049;-66
2023/03/24 13:20:07;;;;;;;5.28;1.30;;;;;;;;;;5065477;28;20248;-67
2023/03/24 13:22:36;;;;;;;3.22;1.30;;;;;;;;;;5069116;28;20137;-67
2023/03/24 13:25:08;;;;;;;7.40;1.30;;;;;;;;;;5065566;28;20044;-72
2023/03/24 13:27:40;;;;;;;11.70;1.67;;;;;;;;;;5063051;28;20075;-65
2023/03/24 13:30:27;;;;;;;5.68;1.70;;;;;;;;;;5065506;28;20049;-67
2023/03/24 13:33:20;;;;;;;5.15;1.55;;;;;;;;;;5063651;28;20056;-65
2023/03/24 13:36:04;;;;;;;5.78;1.63;;;;;;;;;;5057087;28;20056;-66
2023/03/24 13:38:36;;;;;;;;;;;;;;;;;;5067364;28;20105;-68
2023/03/24 13:41:06;;;;;;;8.13;1.20;;;;;;;;;;5064543;28;19924;-65
2023/03/24 13:43:33;;;;;;;10.50;1.58;;;;;;;;;;5066142;28;20261;-65
2023/03/24 13:46:04;;;;;;;6.70;1.40;;;;;;;;;;5060739;28;20051;-65
2023/03/24 13:48:42;;;;;;;8.05;1.80;;;;;;;;;;5072298;28;20052;-68
2023/03/24 13:51:33;;;;;;;5.50;1.35;;;;;;;;;;5064314;28;20136;-65
2023/03/24 13:54:14;;;;;;;6.22;1.58;;;;;;;;;;5058177;28;20048;-67
2023/03/24 13:56:59;;;;;;;5.00;1.50;;;;;;;;;;5065905;28;20053;-67
2023/03/24 13:59:58;;;;;;;7.25;1.20;;;;;;;;;;5062027;28;20588;-65
2023/03/24 14:02:30;;;;;;;8.55;1.50;;;;;;;;;;5074046;28;20064;-67
2023/03/24 14:05:10;;;;;;;8.52;1.45;;;;;;;;;;5062622;28;20044;-65
2023/03/24 14:07:39;;;;;;;10.82;1.55;;;;;;;;;;5063489;28;20437;-69
2023/03/24 14:10:20;;;;;;;9.48;1.45;;;;;;;;;;5065755;28;20049;-66
2023/03/24 14:12:58;;;;;;;16.13;1.73;;;;;;;;;;5070438;28;20119;-68
2023/03/24 14:15:32;;;;;;;15.85;1.63;;;;;;;;;;5067805;28;20045;-66
2023/03/24 14:18:22;;;;;;;8.32;1.45;;;;;;;;;;5068553;28;20059;-68
2023/03/24 14:20:55;;;;;;;1.52;0.95;;;;;;;;;;5066207;28;20620;-65
2023/03/24 14:23:45;;;;;;;10.63;1.45;;;;;;;;;;5064150;28;20036;-67
2023/03/24 14:26:33;;;;;;;6.38;1.15;;;;;;;;;;5062066;28;20048;-65
2023/03/24 14:29:00;;;;;;;8.82;1.70;;;;;;;;;;5067640;28;20376;-67
2023/03/24 14:31:28;;;;;;;10.25;1.27;;;;;;;;;;5068894;28;20049;-66
2023/03/24 14:33:57;;;;;;;12.88;1.38;;;;;;;;;;5063786;28;20048;-66
2023/03/24 14:36:38;;;;;;;4.45;1.35;;;;;;;;;;5061033;28;20048;-67
2023/03/24 14:39:19;;;;;;;4.38;1.15;;;;;;;;;;5064864;28;20052;-66
2023/03/24 14:41:50;;;;;;;7.55;1.20;;;;;;;;;;5063879;28;20060;-66
2023/03/24 14:44:50;;;;;;;6.80;1.42;;;;;;;;;;5068703;28;20044;-68
2023/03/24 14:47:19;;;;;;;10.45;1.52;;;;;;;;;;5060286;28;20063;-67
2023/03/24 14:49:49;;;;;;;11.00;1.35;;;;;;;;;;5063942;28;20051;-69
2023/03/24 14:52:39;;;;;;;3.55;1.13;;;;;;;;;;5060733;28;20059;-67
2023/03/24 14:55:18;;;;;;;10.95;1.50;;;;;;;;;;5069210;28;20044;-66
2023/03/24 14:57:52;;;;;;;10.48;1.58;;;;;;;;;;5063565;28;20055;-67
2023/03/24 15:00:39;;;;;;;7.57;1.50;;;;;;;;;;5075507;28;20058;-65
2023/03/24 15:03:17;;;;;;;6.00;1.02;;;;;;;;;;5065300;28;20037;-65
2023/03/24 15:05:43;;;;;;;4.35;1.40;;;;;;;;;;5066592;28;20045;-67
2023/03/24 15:08:17;;;;;;;7.20;1.45;;;;;;;;;;5063179;28;20045;-65
2023/03/24 15:10:59;;;;;;;11.75;1.27;;;;;;;;;;5065835;28;20041;-67
2023/03/24 15:13:33;;;;;;;12.90;1.27;;;;;;;;;;5063415;28;20052;-67
2023/03/24 15:16:02;;;;;;;4.07;1.20;;;;;;;;;;5058289;28;20060;-64
2023/03/24 15:18:29;;;;;;;10.48;1.35;;;;;;;;;;5064269;28;20321;-66
2023/03/24 15:20:55;;;;;;;6.10;1.30;;;;;;;;;;5066468;28;20480;-66
2023/03/24 15:23:27;;;;;;;9.02;1.25;;;;;;;;;;5064778;28;20056;-67
2023/03/24 15:25:56;;;;;;;7.85;1.60;;;;;;;;;;5061764;28;20048;-68
2023/03/24 15:28:29;;;;;;;8.55;1.80;;;;;;;;;;5064120;28;20063;-67
2023/03/24 15:31:02;;;;;;;4.78;1.25;;;;;;;;;;5071275;28;20032;-67
2023/03/24 15:33:29;;;;;;;5.03;1.33;;;;;;;;;;5059022;28;20048;-66
2023/03/24 15:35:57;;;;;;;3.80;1.75;;;;;;;;;;5068416;28;20084;-66
2023/03/24 15:38:32;;;;;;;5.22;1.15;;;;;;;;;;5062304;28;20412;-68
2023/03/24 15:41:06;;;;;;;5.93;1.55;;;;;;;;;;5067880;28;20055;-67
2023/03/24 15:43:32;;;;;;;;;;;;;;;;;;5059026;28;20044;-66
2023/03/24 15:46:01;;;;;;;9.13;1.42;;;;;;;;;;5070382;28;19942;-65
2023/03/24 15:48:34;;;;;;;11.90;2.10;;;;;;;;;;5071305;28;20488;-65
2023/03/24 15:51:07;;;;;;;9.20;1.85;;;;;;;;;;5059521;28;20453;-67
2023/03/24 15:53:58;;;;;;;6.07;1.63;;;;;;;;;;5064168;28;20035;-66
2023/03/24 15:57:04;;;;;;;10.88;2.50;;;;;;;;;;5059950;28;20060;-68
2023/03/24 16:00:56;;;;;;;12.95;4.85;;;;;;;;;;5063629;28;20040;-66
2023/03/24 16:04:37;;;;;;;12.23;6.43;;;;;;;;;;5078819;28;20051;-66
2023/03/24 16:08:16;;;;;;;14.85;6.40;;;;;;;;;;5063380;28;20087;-66
2023/03/24 16:11:56;;;;;;;14.82;6.03;;;;;;;;;;5067554;28;20051;-66
2023/03/24 16:15:40;;;;;;;13.70;5.88;;;;;;;;;;5064669;28;20044;-66
2023/03/24 16:18:46;;;;;;;49.08;6.93;;;;;;;;;;5061054;28;20045;-67
2023/03/24 16:21:23;;;;;;;14.13;7.00;;;;;;;;;;5068411;28;20143;-65
2023/03/24 16:23:51;;;;;;;16.20;6.88;;;;;;;;;;5058469;28;20044;-66
2023/03/24 16:26:23;;;;;;;15.75;6.93;;;;;;;;;;5064403;28;20439;-66
2023/03/24 16:28:51;;;;;;;17.50;6.93;;;;;;;;;;5066832;28;20044;-65
2023/03/24 16:31:23;;;;;;;19.42;6.85;;;;;;;;;;5081804;28;20111;-67
2023/03/24 16:33:52;;;;;;;16.88;6.78;;;;;;;;;;5068124;28;20122;-67
2023/03/24 16:36:20;;;;;;;18.02;6.78;;;;;;;;;;5063398;28;20048;-66
2023/03/24 16:38:48;;;;;;;22.13;6.50;;;;;;;;;;5067345;28;20044;-65
2023/03/24 16:41:15;;;;;;;16.05;6.65;;;;;;;;;;5064060;28;20060;-65
2023/03/24 16:43:43;;;;;;;9.73;6.40;;;;;;;;;;5066826;28;20489;-66
2023/03/24 16:46:14;;;;;;;11.40;6.43;;;;;;;;;;5066828;28;20045;-67
2023/03/24 16:48:42;;;;;;;16.88;6.60;;;;;;;;;;5070427;28;20040;-67
2023/03/24 16:51:16;;;;;;;16.60;6.90;;;;;;;;;;5082393;28;20041;-65